createdAt,value
2022-09-30T00:02:01.442Z,14.37
2022-09-30T00:04:30.636Z,14.40
2022-09-30T00:06:59.883Z,14.39
2022-09-30T00:09:29.106Z,14.37
2022-09-30T00:11:58.492Z,14.39
2022-09-30T00:14:27.678Z,14.40
2022-09-30T00:16:56.791Z,14.45
2022-09-30T00:19:27.443Z,14.39
2022-09-30T00:21:56.614Z,14.45
2022-09-30T00:24:25.790Z,14.46
2022-09-30T00:26:55.077Z,14.50
2022-09-30T00:29:24.213Z,14.51
2022-09-30T00:31:53.510Z,14.47
2022-09-30T00:34:22.775Z,14.46
2022-09-30T00:36:55.674Z,14.42
2022-09-30T00:39:28.054Z,14.45
2022-09-30T00:42:01.122Z,14.50
2022-09-30T00:44:54.277Z,14.45
2022-09-30T00:47:43.733Z,14.51
2022-09-30T00:50:36.375Z,14.53
2022-09-30T00:53:15.450Z,14.52
2022-09-30T00:55:52.870Z,14.47
2022-09-30T00:58:29.455Z,14.58
2022-09-30T01:01:01.832Z,14.57
2022-09-30T01:03:34.907Z,14.57
2022-09-30T01:06:04.495Z,14.58
2022-09-30T01:08:39.324Z,14.57
2022-09-30T01:11:08.591Z,14.59
2022-09-30T01:13:40.987Z,14.60
2022-09-30T01:16:43.980Z,14.65
2022-09-30T01:19:43.672Z,14.64
2022-09-30T01:22:33.186Z,14.63
2022-09-30T01:25:56.709Z,14.66
2022-09-30T01:28:47.692Z,14.51
2022-09-30T01:31:40.436Z,14.59
2022-09-30T01:34:19.455Z,14.62
2022-09-30T01:37:08.125Z,14.55
2022-09-30T01:39:50.529Z,14.55
2022-09-30T01:42:29.149Z,14.47
2022-09-30T01:45:08.463Z,14.43
2022-09-30T01:47:48.468Z,14.46
2022-09-30T01:50:23.303Z,14.46
2022-09-30T01:53:02.215Z,14.47
2022-09-30T01:55:37.374Z,14.50
2022-09-30T01:58:16.064Z,14.48
2022-09-30T02:00:52.326Z,14.48
2022-09-30T02:03:29.074Z,14.48
2022-09-30T02:06:03.817Z,14.48
2022-09-30T02:08:41.524Z,14.45
2022-09-30T02:11:16.448Z,14.43
2022-09-30T02:13:52.139Z,14.47
2022-09-30T02:16:29.721Z,14.50
2022-09-30T02:19:10.382Z,14.57
2022-09-30T02:21:44.989Z,14.59
2022-09-30T02:24:18.905Z,14.63
2022-09-30T02:26:51.049Z,14.69
2022-09-30T02:29:25.057Z,14.59
2022-09-30T02:31:59.367Z,14.71
2022-09-30T02:34:33.997Z,14.70
2022-09-30T02:37:10.291Z,14.80
2022-09-30T02:39:45.095Z,14.71
2022-09-30T02:42:20.493Z,14.80
2022-09-30T02:44:52.396Z,14.87
2022-09-30T02:47:32.636Z,14.86
2022-09-30T02:50:13.721Z,14.86
2022-09-30T02:52:56.961Z,14.97
2022-09-30T02:55:35.163Z,14.97
2022-09-30T02:58:13.292Z,14.92
2022-09-30T03:00:42.616Z,14.86
2022-09-30T03:03:20.654Z,14.93
2022-09-30T03:05:52.930Z,14.98
2022-09-30T03:08:22.429Z,15.00
2022-09-30T03:10:53.519Z,14.89
2022-09-30T03:14:10.842Z,15.05
2022-09-30T03:17:09.670Z,15.01
2022-09-30T03:19:56.493Z,14.93
2022-09-30T03:23:08.988Z,14.93
2022-09-30T03:25:49.445Z,14.89
2022-09-30T03:28:28.058Z,14.92
2022-09-30T03:31:07.265Z,14.92
2022-09-30T03:33:50.538Z,14.90
2022-09-30T03:36:29.819Z,14.86
2022-09-30T03:39:07.594Z,14.85
2022-09-30T03:41:43.558Z,14.87
2022-09-30T03:44:22.291Z,14.90
2022-09-30T03:46:57.734Z,14.85
2022-09-30T03:49:33.316Z,15.00
2022-09-30T03:52:07.325Z,14.86
2022-09-30T03:54:48.583Z,14.77
2022-09-30T03:57:17.888Z,14.87
2022-09-30T03:59:47.059Z,14.98
2022-09-30T04:02:16.448Z,15.04
2022-09-30T04:04:45.600Z,14.96
2022-09-30T04:07:14.774Z,15.04
2022-09-30T04:09:45.373Z,15.06
2022-09-30T04:12:14.607Z,15.03
2022-09-30T04:14:43.921Z,14.86
2022-09-30T04:17:13.056Z,14.81
2022-09-30T04:19:42.269Z,14.83
2022-09-30T04:22:11.760Z,14.83
2022-09-30T04:24:40.880Z,14.79
2022-09-30T04:27:11.524Z,14.67
2022-09-30T04:29:40.670Z,14.57
2022-09-30T04:32:09.794Z,14.64
2022-09-30T04:34:39.000Z,14.61
2022-09-30T04:37:10.955Z,14.64
2022-09-30T04:39:40.917Z,14.59
2022-09-30T04:42:11.479Z,14.52
2022-09-30T04:44:40.660Z,14.47
2022-09-30T04:47:09.885Z,14.45
2022-09-30T04:49:39.159Z,14.34
2022-09-30T04:52:08.390Z,14.43
2022-09-30T04:54:37.497Z,14.44
2022-09-30T04:57:06.632Z,14.35
2022-09-30T04:59:37.337Z,14.35
2022-09-30T05:02:06.749Z,14.40
2022-09-30T05:04:36.008Z,14.35
2022-09-30T05:07:08.940Z,14.39
2022-09-30T05:09:38.549Z,14.56
2022-09-30T05:12:08.346Z,14.48
2022-09-30T05:14:38.977Z,14.54
2022-09-30T05:17:08.810Z,14.70
2022-09-30T05:19:37.900Z,14.71
2022-09-30T05:22:07.086Z,14.74
2022-09-30T05:24:36.242Z,14.76
2022-09-30T05:27:05.472Z,14.78
2022-09-30T05:29:34.675Z,14.89
2022-09-30T05:32:05.801Z,14.80
2022-09-30T05:34:35.034Z,14.88
2022-09-30T05:37:04.350Z,14.93
2022-09-30T05:39:33.483Z,14.97
2022-09-30T05:42:02.653Z,15.03
2022-09-30T05:44:31.812Z,15.02
2022-09-30T05:47:01.183Z,15.06
2022-09-30T05:49:35.075Z,15.00
2022-09-30T05:52:04.275Z,15.00
2022-09-30T05:54:33.443Z,15.19
2022-09-30T05:57:02.669Z,15.25
2022-09-30T05:59:31.937Z,15.29
2022-09-30T06:02:01.766Z,15.33
2022-09-30T06:04:32.498Z,15.41
2022-09-30T06:07:01.742Z,15.38
2022-09-30T06:09:30.982Z,15.43
2022-09-30T06:12:00.396Z,15.43
2022-09-30T06:14:29.518Z,15.35
2022-09-30T06:17:00.539Z,15.35
2022-09-30T06:19:31.178Z,15.39
2022-09-30T06:22:01.514Z,15.41
2022-09-30T06:24:31.136Z,15.41
2022-09-30T06:27:00.468Z,15.34
2022-09-30T06:29:29.611Z,15.38
2022-09-30T06:31:58.739Z,15.34
2022-09-30T06:34:27.937Z,15.32
2022-09-30T06:36:58.492Z,15.23
2022-09-30T06:39:28.298Z,15.26
2022-09-30T06:41:57.446Z,15.21
2022-09-30T06:44:29.452Z,15.13
2022-09-30T06:46:59.974Z,15.25
2022-09-30T06:49:37.812Z,15.36
2022-09-30T06:52:14.231Z,15.36
2022-09-30T06:54:43.764Z,15.40
2022-09-30T06:57:12.895Z,15.44
2022-09-30T06:59:42.914Z,15.51
2022-09-30T07:02:13.553Z,15.46
2022-09-30T07:04:43.002Z,15.52
2022-09-30T07:07:13.823Z,15.58
2022-09-30T07:09:43.912Z,15.59
2022-09-30T07:12:13.104Z,15.55
2022-09-30T07:14:42.355Z,15.53
2022-09-30T07:17:11.542Z,15.54
2022-09-30T07:19:40.917Z,15.48
2022-09-30T07:22:27.563Z,15.56
2022-09-30T07:24:59.138Z,15.46
2022-09-30T07:27:31.550Z,15.57
2022-09-30T07:30:13.341Z,15.66
2022-09-30T07:32:47.586Z,15.60
2022-09-30T07:35:16.873Z,15.66
2022-09-30T07:37:46.216Z,15.63
2022-09-30T07:40:17.004Z,15.66
2022-09-30T07:42:46.658Z,15.66
2022-09-30T07:45:17.206Z,15.71
2022-09-30T07:47:51.000Z,15.75
2022-09-30T07:50:22.723Z,15.76
2022-09-30T07:52:54.090Z,15.85
2022-09-30T07:55:25.049Z,15.98
2022-09-30T07:57:54.241Z,15.93
2022-09-30T08:00:41.497Z,16.03
2022-09-30T08:03:11.919Z,15.91
2022-09-30T08:05:41.900Z,15.93
2022-09-30T08:08:11.137Z,15.95
2022-09-30T08:10:41.766Z,15.71
2022-09-30T08:13:13.921Z,15.86
2022-09-30T08:15:43.284Z,15.94
2022-09-30T08:18:12.604Z,16.08
2022-09-30T08:20:41.932Z,16.02
2022-09-30T08:23:11.102Z,16.09
2022-09-30T08:25:41.721Z,16.06
2022-09-30T08:28:12.255Z,16.09
2022-09-30T08:30:41.998Z,16.00
2022-09-30T08:33:11.326Z,16.03
2022-09-30T08:35:40.514Z,16.06
2022-09-30T08:38:09.672Z,16.18
2022-09-30T08:40:56.757Z,16.07
2022-09-30T08:43:37.990Z,16.14
2022-09-30T08:46:18.715Z,16.06
2022-09-30T08:49:04.022Z,16.06
2022-09-30T08:51:38.272Z,16.13
2022-09-30T08:54:13.826Z,16.18
2022-09-30T08:56:45.817Z,16.07
2022-09-30T08:59:28.820Z,16.29
2022-09-30T09:02:03.131Z,16.28
2022-09-30T09:04:32.556Z,16.23
2022-09-30T09:07:11.755Z,16.31
2022-09-30T09:09:57.698Z,16.38
2022-09-30T09:12:38.754Z,16.50
2022-09-30T09:15:28.138Z,16.53
2022-09-30T09:18:36.196Z,16.65
2022-09-30T09:21:21.534Z,16.77
2022-09-30T09:23:54.227Z,16.90
2022-09-30T09:26:24.438Z,16.84
2022-09-30T09:29:20.187Z,17.02
2022-09-30T09:31:49.490Z,16.98
2022-09-30T09:34:18.744Z,17.02
2022-09-30T09:37:00.842Z,17.10
2022-09-30T09:40:03.581Z,17.03
2022-09-30T09:42:55.553Z,16.87
2022-09-30T09:45:36.076Z,16.86
2022-09-30T09:48:12.100Z,16.96
2022-09-30T09:50:54.657Z,16.87
2022-09-30T09:53:49.492Z,17.01
2022-09-30T09:56:21.958Z,16.88
2022-09-30T09:59:09.780Z,16.98
2022-09-30T10:01:43.445Z,17.08
2022-09-30T10:04:22.116Z,17.16
2022-09-30T10:06:57.900Z,17.02
2022-09-30T10:09:33.457Z,17.14
2022-09-30T10:12:29.368Z,17.02
2022-09-30T10:15:20.924Z,17.06
2022-09-30T10:17:57.681Z,17.00
2022-09-30T10:20:33.541Z,17.15
2022-09-30T10:23:10.782Z,17.03
2022-09-30T10:25:39.963Z,17.13
2022-09-30T10:28:25.283Z,17.00
2022-09-30T10:30:59.805Z,17.19
2022-09-30T10:33:37.266Z,17.03
2022-09-30T10:36:15.358Z,17.19
2022-09-30T10:39:02.578Z,17.33
2022-09-30T10:41:38.433Z,17.42
2022-09-30T10:44:16.909Z,17.45
2022-09-30T10:46:49.141Z,17.50
2022-09-30T10:49:33.199Z,17.45
2022-09-30T10:52:04.294Z,17.56
2022-09-30T10:54:50.182Z,17.31
2022-09-30T10:57:24.900Z,17.34
2022-09-30T11:00:01.186Z,17.58
2022-09-30T11:02:38.109Z,17.46
2022-09-30T11:05:18.231Z,17.63
2022-09-30T11:07:54.822Z,17.79
2022-09-30T11:10:36.068Z,17.81
2022-09-30T11:13:14.963Z,17.70
2022-09-30T11:15:54.922Z,17.74
2022-09-30T11:18:32.075Z,17.87
2022-09-30T11:21:07.937Z,17.85
2022-09-30T11:23:42.343Z,17.95
2022-09-30T11:26:20.573Z,18.08
2022-09-30T11:29:07.277Z,18.23
2022-09-30T11:31:42.156Z,18.22
2022-09-30T11:34:30.026Z,18.32
2022-09-30T11:37:16.438Z,18.21
2022-09-30T11:40:16.134Z,18.30
2022-09-30T11:42:54.737Z,18.39
2022-09-30T11:45:36.775Z,18.31
2022-09-30T11:48:32.542Z,18.35
2022-09-30T11:51:17.110Z,18.38
2022-09-30T11:54:02.219Z,18.32
2022-09-30T11:56:48.370Z,18.35
2022-09-30T11:59:25.239Z,18.12
2022-09-30T12:02:02.522Z,18.31
2022-09-30T12:04:39.484Z,18.23
2022-09-30T12:07:17.867Z,18.33
2022-09-30T12:09:55.058Z,18.26
2022-09-30T12:12:24.485Z,18.25
2022-09-30T12:14:58.366Z,18.18
2022-09-30T12:17:33.387Z,18.16
2022-09-30T12:20:16.918Z,17.88
2022-09-30T12:22:49.435Z,18.14
2022-09-30T12:25:26.267Z,18.26
2022-09-30T12:28:01.832Z,18.30
2022-09-30T12:30:31.035Z,18.30
2022-09-30T12:33:48.845Z,18.28
2022-09-30T12:36:57.643Z,18.25
2022-09-30T12:40:20.043Z,18.27
2022-09-30T12:43:41.291Z,18.27
2022-09-30T12:46:31.761Z,18.16
2022-09-30T12:49:06.156Z,18.27
2022-09-30T12:51:39.179Z,18.26
2022-09-30T12:54:18.884Z,18.19
2022-09-30T12:56:54.915Z,18.22
2022-09-30T12:59:31.596Z,18.36
2022-09-30T13:02:04.505Z,18.93
2022-09-30T13:04:37.901Z,19.62
2022-09-30T13:07:20.391Z,20.15
2022-09-30T13:10:03.169Z,20.85
2022-09-30T13:12:44.153Z,21.40
2022-09-30T13:15:43.617Z,21.63
2022-09-30T13:18:59.662Z,22.17
2022-09-30T13:21:32.039Z,22.36
2022-09-30T13:24:01.906Z,22.63
2022-09-30T13:26:48.643Z,22.62
2022-09-30T13:29:50.869Z,22.96
2022-09-30T13:32:37.475Z,23.06
2022-09-30T13:35:33.218Z,23.27
2022-09-30T13:38:36.511Z,23.46
2022-09-30T13:41:17.701Z,23.14
2022-09-30T13:44:03.358Z,22.83
2022-09-30T13:46:43.165Z,22.49
2022-09-30T13:49:22.731Z,22.75
2022-09-30T13:51:52.871Z,22.71
2022-09-30T13:54:31.151Z,22.87
2022-09-30T13:57:02.424Z,22.72
2022-09-30T13:59:49.302Z,22.37
2022-09-30T14:03:03.974Z,22.34
2022-09-30T14:05:55.713Z,22.73
2022-09-30T14:08:55.045Z,22.54
2022-09-30T14:11:56.792Z,22.67
2022-09-30T14:15:09.785Z,22.77
2022-09-30T14:18:00.662Z,22.61
2022-09-30T14:20:52.877Z,22.75
2022-09-30T14:23:22.633Z,22.83
2022-09-30T14:26:01.207Z,22.92
2022-09-30T14:28:37.913Z,23.18
2022-09-30T14:31:10.320Z,23.73
2022-09-30T14:33:39.880Z,23.17
2022-09-30T14:36:16.968Z,22.73
2022-09-30T14:38:49.254Z,22.44
2022-09-30T14:41:22.549Z,22.49
2022-09-30T14:43:56.698Z,22.80
2022-09-30T14:46:35.138Z,23.16
2022-09-30T14:49:08.501Z,23.20
2022-09-30T14:51:43.715Z,23.49
2022-09-30T14:54:19.810Z,23.25
2022-09-30T14:56:51.103Z,23.41
2022-09-30T14:59:24.916Z,23.50
2022-09-30T15:02:00.751Z,23.10
2022-09-30T15:04:34.224Z,23.57
2022-09-30T15:07:11.064Z,23.04
2022-09-30T15:09:43.788Z,23.25
2022-09-30T15:12:16.194Z,22.99
2022-09-30T15:14:50.025Z,23.02
2022-09-30T15:17:21.598Z,22.87
2022-09-30T15:19:51.373Z,22.59
2022-09-30T15:22:24.161Z,22.26
2022-09-30T15:24:54.478Z,21.89
2022-09-30T15:27:28.336Z,21.82
2022-09-30T15:29:58.459Z,21.59
2022-09-30T15:32:30.496Z,21.56
2022-09-30T15:35:05.543Z,21.28
2022-09-30T15:37:36.442Z,20.98
2022-09-30T15:40:33.876Z,20.78
2022-09-30T15:43:07.032Z,20.57
2022-09-30T15:45:39.608Z,20.44
2022-09-30T15:48:29.265Z,20.25
2022-09-30T15:51:01.534Z,20.10
2022-09-30T15:53:47.208Z,19.82
2022-09-30T15:56:24.643Z,19.69
2022-09-30T15:58:58.266Z,19.59
2022-09-30T16:01:34.377Z,19.48
2022-09-30T16:04:10.204Z,19.49
2022-09-30T16:06:48.531Z,19.35
2022-09-30T16:09:29.255Z,19.36
2022-09-30T16:12:05.501Z,19.38
2022-09-30T16:14:44.925Z,19.29
2022-09-30T16:17:21.413Z,19.33
2022-09-30T16:19:55.936Z,19.39
2022-09-30T16:22:54.956Z,19.32
2022-09-30T16:25:30.809Z,19.11
2022-09-30T16:28:02.684Z,18.95
2022-09-30T16:30:33.367Z,19.05
2022-09-30T16:33:07.592Z,19.06
2022-09-30T16:35:36.812Z,18.95
2022-09-30T16:38:08.951Z,18.62
2022-09-30T16:40:40.230Z,18.78
2022-09-30T16:43:11.017Z,18.79
2022-09-30T16:45:41.690Z,18.69
2022-09-30T16:48:17.360Z,18.55
2022-09-30T16:50:51.688Z,18.53
2022-09-30T16:53:20.849Z,18.63
2022-09-30T16:55:52.339Z,18.42
2022-09-30T16:58:21.483Z,18.37
2022-09-30T17:00:50.805Z,18.28
2022-09-30T17:03:21.715Z,18.28
2022-09-30T17:05:53.304Z,18.27
2022-09-30T17:08:24.313Z,18.07
2022-09-30T17:10:56.262Z,18.06
2022-09-30T17:13:26.926Z,17.83
2022-09-30T17:15:57.899Z,18.00
2022-09-30T17:18:27.121Z,17.92
2022-09-30T17:20:56.689Z,17.89
2022-09-30T17:23:26.953Z,17.94
2022-09-30T17:25:58.127Z,17.77
2022-09-30T17:28:27.375Z,17.82
2022-09-30T17:30:56.965Z,17.50
2022-09-30T17:33:26.308Z,17.70
2022-09-30T17:36:00.691Z,17.62
2022-09-30T17:38:30.783Z,17.44
2022-09-30T17:41:19.926Z,17.50
2022-09-30T17:43:49.545Z,17.37
2022-09-30T17:46:23.425Z,17.34
2022-09-30T17:48:57.847Z,17.24
2022-09-30T17:51:27.023Z,17.21
2022-09-30T17:53:57.091Z,17.25
2022-09-30T17:56:29.221Z,17.17
2022-09-30T17:59:01.994Z,16.97
2022-09-30T18:01:32.221Z,17.03
2022-09-30T18:04:02.100Z,17.18
2022-09-30T18:06:32.292Z,17.16
2022-09-30T18:09:01.583Z,16.95
2022-09-30T18:11:32.417Z,16.93
2022-09-30T18:14:02.304Z,16.80
2022-09-30T18:16:33.935Z,16.79
2022-09-30T18:19:05.701Z,16.97
2022-09-30T18:21:37.258Z,16.66
2022-09-30T18:24:07.893Z,16.72
2022-09-30T18:26:38.559Z,16.82
2022-09-30T18:29:08.120Z,16.81
2022-09-30T18:31:38.821Z,16.86
2022-09-30T18:34:08.453Z,16.85
2022-09-30T18:36:38.023Z,16.79
2022-09-30T18:39:07.440Z,16.86
2022-09-30T18:41:44.516Z,16.70
2022-09-30T18:44:14.556Z,16.71
2022-09-30T18:46:44.210Z,16.69
2022-09-30T18:49:13.745Z,16.63
2022-09-30T18:51:42.986Z,16.63
2022-09-30T18:54:13.388Z,16.66
2022-09-30T18:56:45.040Z,16.67
2022-09-30T18:59:18.310Z,16.51
2022-09-30T19:01:50.497Z,16.56
2022-09-30T19:04:19.809Z,16.46
2022-09-30T19:06:50.023Z,16.41
2022-09-30T19:09:19.256Z,16.32
2022-09-30T19:11:51.567Z,16.28
2022-09-30T19:14:20.969Z,16.09
2022-09-30T19:16:51.349Z,16.14
2022-09-30T19:19:22.885Z,16.19
2022-09-30T19:21:52.246Z,16.15
2022-09-30T19:24:25.373Z,16.22
2022-09-30T19:26:58.058Z,16.07
2022-09-30T19:29:27.371Z,16.04
2022-09-30T19:31:57.548Z,15.97
2022-09-30T19:34:32.235Z,15.89
2022-09-30T19:37:02.048Z,15.99
2022-09-30T19:39:42.079Z,15.98
2022-09-30T19:42:18.392Z,15.97
2022-09-30T19:44:47.558Z,15.86
2022-09-30T19:47:17.071Z,15.88
2022-09-30T19:49:46.594Z,15.80
2022-09-30T19:52:21.902Z,15.81
2022-09-30T19:54:55.865Z,15.74
2022-09-30T19:57:28.228Z,15.73
2022-09-30T20:00:00.367Z,15.76
2022-09-30T20:02:40.515Z,15.52
2022-09-30T20:05:11.564Z,15.60
2022-09-30T20:07:40.857Z,15.69
2022-09-30T20:10:10.885Z,15.74
2022-09-30T20:12:42.779Z,15.78
2022-09-30T20:15:29.827Z,15.76
2022-09-30T20:17:59.065Z,15.60
2022-09-30T20:20:44.864Z,15.70
2022-09-30T20:23:14.769Z,15.64
2022-09-30T20:25:44.079Z,15.61
2022-09-30T20:28:14.722Z,15.59
2022-09-30T20:30:45.695Z,15.56
2022-09-30T20:33:17.726Z,15.61
2022-09-30T20:35:47.506Z,15.72
2022-09-30T20:38:19.305Z,15.55
2022-09-30T20:40:48.460Z,15.75
2022-09-30T20:43:19.719Z,15.72
2022-09-30T20:45:55.538Z,15.77
2022-09-30T20:48:24.807Z,15.76
2022-09-30T20:50:53.998Z,15.82
2022-09-30T20:53:24.189Z,15.81
2022-09-30T20:55:53.348Z,15.71
2022-09-30T20:58:24.035Z,15.72
2022-09-30T21:00:53.248Z,15.60
2022-09-30T21:03:23.258Z,15.68
2022-09-30T21:05:55.489Z,15.68
2022-09-30T21:08:24.912Z,15.49
2022-09-30T21:10:54.046Z,15.56
2022-09-30T21:13:24.690Z,15.46
2022-09-30T21:16:01.978Z,15.44
2022-09-30T21:18:31.735Z,15.45
2022-09-30T21:21:03.398Z,15.45
2022-09-30T21:23:35.373Z,15.42
2022-09-30T21:26:06.872Z,15.38
2022-09-30T21:28:38.397Z,15.43
2022-09-30T21:31:14.216Z,15.59
2022-09-30T21:33:44.835Z,15.39
2022-09-30T21:36:14.150Z,15.49
2022-09-30T21:38:43.384Z,15.50
2022-09-30T21:41:12.540Z,15.42
2022-09-30T21:43:43.901Z,15.38
2022-09-30T21:46:15.415Z,15.30
2022-09-30T21:48:45.603Z,15.28
2022-09-30T21:51:15.034Z,15.21
2022-09-30T21:53:44.261Z,15.25
2022-09-30T21:56:13.912Z,15.30
2022-09-30T21:58:44.584Z,15.22
2022-09-30T22:01:14.089Z,15.15
2022-09-30T22:03:43.573Z,15.15
2022-09-30T22:06:13.414Z,15.13
2022-09-30T22:08:42.748Z,15.18
2022-09-30T22:11:15.567Z,15.05
2022-09-30T22:13:47.377Z,15.10
2022-09-30T22:16:19.942Z,15.01
2022-09-30T22:18:48.980Z,15.03
2022-09-30T22:21:18.089Z,14.98
2022-09-30T22:23:49.109Z,14.89
2022-09-30T22:26:21.509Z,14.80
2022-09-30T22:28:57.009Z,14.78
2022-09-30T22:31:28.514Z,14.79
2022-09-30T22:34:19.123Z,14.86
2022-09-30T22:37:06.278Z,14.91
2022-09-30T22:39:36.613Z,14.90
2022-09-30T22:42:07.449Z,14.81
2022-09-30T22:44:39.403Z,14.85
2022-09-30T22:47:10.999Z,14.77
2022-09-30T22:49:40.155Z,14.82
2022-09-30T22:52:10.026Z,14.77
2022-09-30T22:54:39.177Z,14.81
2022-09-30T22:57:09.198Z,14.80
2022-09-30T22:59:41.820Z,14.78
2022-09-30T23:02:10.850Z,14.62
2022-09-30T23:04:40.041Z,14.81
2022-09-30T23:07:09.244Z,14.88
2022-09-30T23:09:38.353Z,14.89
2022-09-30T23:12:07.488Z,14.87
2022-09-30T23:14:38.917Z,14.80
2022-09-30T23:17:08.199Z,14.77
2022-09-30T23:19:37.357Z,14.89
2022-09-30T23:22:06.763Z,14.89
2022-09-30T23:24:35.971Z,14.92
2022-09-30T23:27:05.215Z,14.86
2022-09-30T23:29:34.362Z,14.85
2022-09-30T23:32:04.987Z,14.81
2022-09-30T23:34:34.138Z,14.93
2022-09-30T23:37:03.253Z,14.97
2022-09-30T23:39:32.366Z,14.94
2022-09-30T23:42:01.547Z,14.90
2022-09-30T23:44:31.114Z,14.88
2022-09-30T23:47:17.424Z,14.89
2022-09-30T23:49:48.173Z,14.85
2022-09-30T23:52:17.952Z,14.77
2022-09-30T23:54:47.094Z,14.79
2022-09-30T23:57:16.223Z,14.75
2022-09-30T23:59:45.369Z,14.79
